createdAt,value
2022-08-31T00:00:55.532Z,17.53
2022-08-31T00:05:55.087Z,16.78
2022-08-31T00:10:55.178Z,16.96
2022-08-31T00:15:54.851Z,16.70
2022-08-31T00:20:54.998Z,16.65
2022-08-31T00:25:57.861Z,16.50
2022-08-31T00:30:54.692Z,16.11
2022-08-31T00:35:54.729Z,16.62
2022-08-31T00:40:54.595Z,16.93
2022-08-31T00:45:54.531Z,16.92
2022-08-31T00:50:54.443Z,16.90
2022-08-31T00:55:54.349Z,16.80
2022-08-31T01:01:02.209Z,16.89
2022-08-31T01:05:54.141Z,16.48
2022-08-31T01:10:54.146Z,16.60
2022-08-31T01:15:54.334Z,16.71
2022-08-31T01:20:53.998Z,16.89
2022-08-31T01:25:56.991Z,16.41
2022-08-31T01:30:53.857Z,16.06
2022-08-31T01:35:54.056Z,16.49
2022-08-31T01:40:53.717Z,16.62
2022-08-31T01:45:53.694Z,16.86
2022-08-31T01:50:53.593Z,17.06
2022-08-31T01:55:53.521Z,17.08
2022-08-31T02:00:53.488Z,16.95
2022-08-31T02:06:28.029Z,16.83
2022-08-31T02:11:28.086Z,16.27
2022-08-31T02:16:28.081Z,16.23
2022-08-31T02:21:27.793Z,16.30
2022-08-31T02:26:27.761Z,16.16
2022-08-31T02:31:27.640Z,16.49
2022-08-31T02:36:27.703Z,16.55
2022-08-31T02:41:27.582Z,16.53
2022-08-31T02:46:27.410Z,16.77
2022-08-31T02:51:27.536Z,16.88
2022-08-31T02:56:30.259Z,16.77
2022-08-31T03:01:27.191Z,16.50
2022-08-31T03:06:27.259Z,16.78
2022-08-31T03:11:27.002Z,16.78
2022-08-31T03:16:27.096Z,16.90
2022-08-31T03:21:27.166Z,16.73
2022-08-31T03:26:26.886Z,16.75
2022-08-31T03:31:26.825Z,16.86
2022-08-31T03:36:26.704Z,16.85
2022-08-31T03:41:26.616Z,16.83
2022-08-31T03:46:28.249Z,16.71
2022-08-31T03:51:26.554Z,16.74
2022-08-31T03:56:29.474Z,16.12
2022-08-31T04:01:26.539Z,15.52
2022-08-31T04:06:26.398Z,16.09
2022-08-31T04:11:45.482Z,15.78
2022-08-31T04:16:27.218Z,15.60
2022-08-31T04:21:26.119Z,15.23
2022-08-31T04:26:26.059Z,15.38
2022-08-31T04:31:25.979Z,15.35
2022-08-31T04:36:26.004Z,15.49
2022-08-31T04:41:25.824Z,15.43
2022-08-31T04:46:26.083Z,15.28
2022-08-31T04:51:25.691Z,15.46
2022-08-31T04:56:28.737Z,15.31
2022-08-31T05:01:25.800Z,15.31
2022-08-31T05:06:33.757Z,16.03
2022-08-31T05:11:33.183Z,16.06
2022-08-31T05:16:25.666Z,15.67
2022-08-31T05:21:25.487Z,15.81
2022-08-31T05:26:26.811Z,15.60
2022-08-31T05:31:25.274Z,16.40
2022-08-31T05:36:25.304Z,16.81
2022-08-31T05:41:25.009Z,17.04
2022-08-31T05:46:25.187Z,17.32
2022-08-31T05:51:25.055Z,17.46
2022-08-31T05:56:27.963Z,17.71
2022-08-31T06:01:24.859Z,17.51
2022-08-31T06:06:24.883Z,18.02
2022-08-31T06:11:24.916Z,18.27
2022-08-31T06:16:25.625Z,18.54
2022-08-31T06:21:31.867Z,19.02
2022-08-31T06:26:24.432Z,18.37
2022-08-31T06:31:24.487Z,18.76
2022-08-31T06:36:24.294Z,18.91
2022-08-31T06:41:24.564Z,18.86
2022-08-31T06:46:24.255Z,18.87
2022-08-31T06:51:24.236Z,19.40
2022-08-31T06:56:27.127Z,19.54
2022-08-31T07:01:34.951Z,18.86
2022-08-31T07:06:25.004Z,18.87
2022-08-31T07:11:24.025Z,18.83
2022-08-31T07:16:23.857Z,19.11
2022-08-31T07:21:23.719Z,19.18
2022-08-31T07:26:23.751Z,19.60
2022-08-31T07:31:23.836Z,20.15
2022-08-31T07:36:23.579Z,19.53
2022-08-31T07:41:23.559Z,19.43
2022-08-31T07:46:23.428Z,19.32
2022-08-31T07:51:23.414Z,19.47
2022-08-31T07:56:26.379Z,20.05
2022-08-31T08:01:23.284Z,19.68
2022-08-31T08:06:23.146Z,20.13
2022-08-31T08:11:23.311Z,21.09
2022-08-31T08:16:23.261Z,20.93
2022-08-31T08:21:22.966Z,20.89
2022-08-31T08:26:22.898Z,21.11
2022-08-31T08:31:22.972Z,21.53
2022-08-31T08:36:22.949Z,21.71
2022-08-31T08:41:22.705Z,21.92
2022-08-31T08:46:34.554Z,21.64
2022-08-31T08:51:23.554Z,22.07
2022-08-31T08:56:33.371Z,21.97
2022-08-31T09:01:23.555Z,22.28
2022-08-31T09:06:22.412Z,22.52
2022-08-31T09:11:22.197Z,22.23
2022-08-31T09:16:22.339Z,22.29
2022-08-31T09:21:31.261Z,22.23
2022-08-31T09:26:22.149Z,21.75
2022-08-31T09:31:22.036Z,21.82
2022-08-31T09:36:21.949Z,21.72
2022-08-31T09:41:21.890Z,22.06
2022-08-31T09:46:21.859Z,22.10
2022-08-31T09:51:21.749Z,22.71
2022-08-31T09:56:24.771Z,22.57
2022-08-31T10:01:21.639Z,22.74
2022-08-31T10:06:21.600Z,22.92
2022-08-31T10:11:21.552Z,22.74
2022-08-31T10:16:21.544Z,22.92
2022-08-31T10:21:21.474Z,22.54
2022-08-31T10:26:22.548Z,22.68
2022-08-31T10:31:21.501Z,23.05
2022-08-31T10:36:21.277Z,22.89
2022-08-31T10:41:21.122Z,22.53
2022-08-31T10:46:21.242Z,23.22
2022-08-31T10:51:21.142Z,23.01
2022-08-31T10:56:24.274Z,23.24
2022-08-31T11:01:20.883Z,22.90
2022-08-31T11:06:20.897Z,23.46
2022-08-31T11:11:20.726Z,23.53
2022-08-31T11:16:20.852Z,23.83
2022-08-31T11:21:20.464Z,23.86
2022-08-31T11:26:21.303Z,23.87
2022-08-31T11:31:20.537Z,24.16
2022-08-31T11:36:20.465Z,24.34
2022-08-31T11:41:20.474Z,23.68
2022-08-31T11:46:20.306Z,23.61
2022-08-31T11:51:20.206Z,24.00
2022-08-31T11:56:23.127Z,23.92
2022-08-31T12:01:20.138Z,23.94
2022-08-31T12:06:20.210Z,24.26
2022-08-31T12:11:20.031Z,24.69
2022-08-31T12:16:20.384Z,24.24
2022-08-31T12:21:19.770Z,24.53
2022-08-31T12:26:19.688Z,24.97
2022-08-31T12:31:19.636Z,25.43
2022-08-31T12:36:20.414Z,24.94
2022-08-31T12:41:23.460Z,24.47
2022-08-31T12:46:20.479Z,24.07
2022-08-31T12:51:19.326Z,24.19
2022-08-31T12:56:22.439Z,24.82
2022-08-31T13:01:19.328Z,24.01
2022-08-31T13:06:19.248Z,24.45
2022-08-31T13:11:22.791Z,24.49
2022-08-31T13:16:19.174Z,24.97
2022-08-31T13:21:19.114Z,24.95
2022-08-31T13:26:19.450Z,24.67
2022-08-31T13:31:26.880Z,24.94
2022-08-31T13:36:26.552Z,25.07
2022-08-31T13:41:18.809Z,24.59
2022-08-31T13:46:18.882Z,24.71
2022-08-31T13:51:18.799Z,24.19
2022-08-31T13:56:21.595Z,24.10
2022-08-31T14:01:18.746Z,24.64
2022-08-31T14:06:18.531Z,24.77
2022-08-31T14:11:18.402Z,24.80
2022-08-31T14:16:18.291Z,25.10
2022-08-31T14:21:21.591Z,24.82
2022-08-31T14:26:18.357Z,24.76
2022-08-31T14:31:18.332Z,24.23
2022-08-31T14:36:18.097Z,24.19
2022-08-31T14:41:18.164Z,23.97
2022-08-31T14:46:18.821Z,23.79
2022-08-31T14:51:17.910Z,24.24
2022-08-31T14:56:20.786Z,23.95
2022-08-31T15:01:17.727Z,23.57
2022-08-31T15:06:17.591Z,23.83
2022-08-31T15:11:17.519Z,23.95
2022-08-31T15:16:17.493Z,23.98
2022-08-31T15:21:17.319Z,23.98
2022-08-31T15:26:17.334Z,24.00
2022-08-31T15:31:17.177Z,23.75
2022-08-31T15:36:17.146Z,23.95
2022-08-31T15:41:17.223Z,23.68
2022-08-31T15:46:17.837Z,23.62
2022-08-31T15:51:17.167Z,23.35
2022-08-31T15:56:20.102Z,23.35
2022-08-31T16:01:17.065Z,22.94
2022-08-31T16:06:16.929Z,23.26
2022-08-31T16:11:16.793Z,23.07
2022-08-31T16:16:16.905Z,23.04
2022-08-31T16:21:16.671Z,23.05
2022-08-31T16:26:19.976Z,23.07
2022-08-31T16:31:16.633Z,22.96
2022-08-31T16:36:16.467Z,22.83
2022-08-31T16:41:16.310Z,23.08
2022-08-31T16:46:39.602Z,22.93
2022-08-31T16:51:17.320Z,22.92
2022-08-31T16:56:19.188Z,22.86
2022-08-31T17:01:16.586Z,22.32
2022-08-31T17:06:16.058Z,22.50
2022-08-31T17:11:16.008Z,22.74
2022-08-31T17:16:16.075Z,22.32
2022-08-31T17:21:15.842Z,22.56
2022-08-31T17:26:15.792Z,22.23
2022-08-31T17:31:15.717Z,22.39
2022-08-31T17:36:15.773Z,22.50
2022-08-31T17:41:23.194Z,22.37
2022-08-31T17:46:22.965Z,22.25
2022-08-31T17:51:15.882Z,21.98
2022-08-31T17:56:20.950Z,21.91
2022-08-31T18:01:16.397Z,21.29
2022-08-31T18:06:15.296Z,21.54
2022-08-31T18:11:15.163Z,21.17
2022-08-31T18:16:15.225Z,20.41
2022-08-31T18:21:15.182Z,20.06
2022-08-31T18:26:15.083Z,19.55
2022-08-31T18:31:15.016Z,19.50
2022-08-31T18:36:14.839Z,19.60
2022-08-31T18:41:22.305Z,19.78
2022-08-31T18:46:14.707Z,19.79
2022-08-31T18:51:19.100Z,19.35
2022-08-31T18:56:17.691Z,19.28
2022-08-31T19:01:14.674Z,19.15
2022-08-31T19:06:14.549Z,19.10
2022-08-31T19:11:14.819Z,18.95
2022-08-31T19:16:15.708Z,18.80
2022-08-31T19:21:14.339Z,18.77
2022-08-31T19:26:15.629Z,18.86
2022-08-31T19:31:14.255Z,18.68
2022-08-31T19:36:14.236Z,18.67
2022-08-31T19:41:14.310Z,18.44
2022-08-31T19:46:14.289Z,18.44
2022-08-31T19:51:14.383Z,18.54
2022-08-31T19:56:17.329Z,18.52
2022-08-31T20:01:13.755Z,18.33
2022-08-31T20:06:13.623Z,18.50
2022-08-31T20:11:16.025Z,18.61
2022-08-31T20:16:13.810Z,18.42
2022-08-31T20:21:13.401Z,18.22
2022-08-31T20:26:13.407Z,18.15
2022-08-31T20:31:13.315Z,18.13
2022-08-31T20:36:13.411Z,17.67
2022-08-31T20:41:13.098Z,17.29
2022-08-31T20:46:13.185Z,17.30
2022-08-31T20:51:12.910Z,17.33
2022-08-31T20:56:17.412Z,17.84
2022-08-31T21:01:12.829Z,17.89
2022-08-31T21:06:20.259Z,18.34
2022-08-31T21:11:12.611Z,18.42
2022-08-31T21:16:12.902Z,18.50
2022-08-31T21:21:12.679Z,18.52
2022-08-31T21:26:20.172Z,18.62
2022-08-31T21:31:16.412Z,18.28
2022-08-31T21:36:13.457Z,18.06
2022-08-31T21:41:12.366Z,17.89
2022-08-31T21:46:12.275Z,18.10
2022-08-31T21:51:20.157Z,18.33
2022-08-31T21:56:23.080Z,18.59
2022-08-31T22:01:12.195Z,18.19
2022-08-31T22:06:12.079Z,18.33
2022-08-31T22:11:13.325Z,18.52
2022-08-31T22:16:14.165Z,18.70
2022-08-31T22:21:12.843Z,18.83
2022-08-31T22:26:19.308Z,19.28
2022-08-31T22:31:11.768Z,18.97
2022-08-31T22:36:11.609Z,18.98
2022-08-31T22:41:12.498Z,18.84
2022-08-31T22:46:11.543Z,18.73
2022-08-31T22:51:11.460Z,18.83
2022-08-31T22:56:14.262Z,18.74
2022-08-31T23:01:11.254Z,18.47
2022-08-31T23:06:11.204Z,18.76
2022-08-31T23:11:11.051Z,18.58
2022-08-31T23:16:11.073Z,18.06
2022-08-31T23:21:10.899Z,17.55
2022-08-31T23:26:11.309Z,17.84
2022-08-31T23:31:10.886Z,17.85
2022-08-31T23:36:10.782Z,17.69
2022-08-31T23:41:13.710Z,17.18
2022-08-31T23:46:10.750Z,16.78
2022-08-31T23:51:10.541Z,16.77
2022-08-31T23:56:13.522Z,16.48
